<?xml version="1.0" encoding="UTF-8" standalone="no" ?>
<gpx xmlns="http://www.topografix.com/GPX/1/1" xmlns:xsi="http://www.w3.org/2001/XMLSchema-instance" xsi:schemaLocation="http://www.topografix.com/GPX/1/1 http://www.topografix.com/GPX/1/1/gpx.xsd" version="1.1" creator="VisuGPX - https://www.visugpx.com">
  <metadata>
    <name>Turquie_100points</name>
  </metadata>
  <trk>
    <name><![CDATA[Tour d'Europe: étape 551]]></name>
    <extensions>
      <line xmlns="http://www.topografix.com/GPX/gpx_style/0/2">
        <color>0000FF</color>
        <width>4</width>
      </line>
    </extensions>
    <trkseg>
      <trkpt lat="37.97144" lon="34.6782">
        <ele>1304.41894</ele>
        <time>2021-12-31T06:28:30.406Z</time>
      </trkpt>
      <trkpt lat="37.97022" lon="34.67795">
        <ele>1302.260893</ele>
        <time>2021-12-31T06:38:57.408Z</time>
      </trkpt>
      <trkpt lat="37.96836" lon="34.67824">
        <ele>1291.449125</ele>
        <time>2021-12-31T06:40:55.386Z</time>
      </trkpt>
      <trkpt lat="37.96614" lon="34.67724">
        <ele>1276.12168</ele>
        <time>2021-12-31T06:41:57.423Z</time>
      </trkpt>
      <trkpt lat="37.96398" lon="34.67621">
        <ele>1253.159509</ele>
        <time>2021-12-31T06:42:42.395Z</time>
      </trkpt>
      <trkpt lat="37.96205" lon="34.67656">
        <ele>1269.823147</ele>
        <time>2021-12-31T06:45:03.392Z</time>
      </trkpt>
      <trkpt lat="37.95991" lon="34.67795">
        <ele>1263.880778</ele>
        <time>2021-12-31T06:45:51.404Z</time>
      </trkpt>
      <trkpt lat="37.95996" lon="34.6798">
        <ele>1249.977353</ele>
        <time>2021-12-31T06:49:10.405Z</time>
      </trkpt>
      <trkpt lat="37.95731" lon="34.67977">
        <ele>1242.258108</ele>
        <time>2021-12-31T06:49:53.386Z</time>
      </trkpt>
      <trkpt lat="37.95507" lon="34.67983">
        <ele>1237.983565</ele>
        <time>2021-12-31T06:50:39.395Z</time>
      </trkpt>
      <trkpt lat="37.95305" lon="34.68042">
        <ele>1235.780422</ele>
        <time>2021-12-31T06:51:21.392Z</time>
      </trkpt>
      <trkpt lat="37.95106" lon="34.68105">
        <ele>1236.662013</ele>
        <time>2021-12-31T06:52:05.395Z</time>
      </trkpt>
      <trkpt lat="37.94866" lon="34.68122">
        <ele>1240.21992</ele>
        <time>2021-12-31T06:53:03.414Z</time>
      </trkpt>
      <trkpt lat="37.94619" lon="34.68016">
        <ele>1240.785222</ele>
        <time>2021-12-31T06:54:06.401Z</time>
      </trkpt>
      <trkpt lat="37.94379" lon="34.67914">
        <ele>1244.996866</ele>
        <time>2021-12-31T06:55:03.447Z</time>
      </trkpt>
      <trkpt lat="37.94143" lon="34.67793">
        <ele>1244.408425</ele>
        <time>2021-12-31T06:56:02.387Z</time>
      </trkpt>
      <trkpt lat="37.93918" lon="34.67659">
        <ele>1239.481432</ele>
        <time>2021-12-31T06:56:44.391Z</time>
      </trkpt>
      <trkpt lat="37.93707" lon="34.67528">
        <ele>1237.168103</ele>
        <time>2021-12-31T06:57:24.413Z</time>
      </trkpt>
      <trkpt lat="37.93515" lon="34.67418">
        <ele>1237.264128</ele>
        <time>2021-12-31T06:58:06.404Z</time>
      </trkpt>
      <trkpt lat="37.93321" lon="34.67299">
        <ele>1237.328947</ele>
        <time>2021-12-31T06:58:48.396Z</time>
      </trkpt>
      <trkpt lat="37.93131" lon="34.67208">
        <ele>1237.791838</ele>
        <time>2021-12-31T06:59:30.393Z</time>
      </trkpt>
      <trkpt lat="37.92926" lon="34.67093">
        <ele>1240.289478</ele>
        <time>2021-12-31T07:00:20.411Z</time>
      </trkpt>
      <trkpt lat="37.92737" lon="34.66989">
        <ele>1240.51124</ele>
        <time>2021-12-31T07:01:03.408Z</time>
      </trkpt>
      <trkpt lat="37.92533" lon="34.66875">
        <ele>1238.846403</ele>
        <time>2021-12-31T07:01:45.415Z</time>
      </trkpt>
      <trkpt lat="37.92331" lon="34.66763">
        <ele>1239.672039</ele>
        <time>2021-12-31T07:02:27.433Z</time>
      </trkpt>
      <trkpt lat="37.92099" lon="34.66635">
        <ele>1242.561805</ele>
        <time>2021-12-31T07:03:26.419Z</time>
      </trkpt>
      <trkpt lat="37.91888" lon="34.66524">
        <ele>1242.511083</ele>
        <time>2021-12-31T07:04:08.397Z</time>
      </trkpt>
      <trkpt lat="37.91677" lon="34.66436">
        <ele>1241.69934</ele>
        <time>2021-12-31T07:04:55.408Z</time>
      </trkpt>
      <trkpt lat="37.91452" lon="34.66329">
        <ele>1243.166894</ele>
        <time>2021-12-31T07:06:01.382Z</time>
      </trkpt>
      <trkpt lat="37.91254" lon="34.66171">
        <ele>1241.386838</ele>
        <time>2021-12-31T07:07:08.410Z</time>
      </trkpt>
      <trkpt lat="37.91075" lon="34.65984">
        <ele>1238.60367</ele>
        <time>2021-12-31T07:07:52.427Z</time>
      </trkpt>
      <trkpt lat="37.90906" lon="34.65752">
        <ele>1242.322505</ele>
        <time>2021-12-31T07:08:48.408Z</time>
      </trkpt>
      <trkpt lat="37.90753" lon="34.65565">
        <ele>1241.723732</ele>
        <time>2021-12-31T07:09:35.398Z</time>
      </trkpt>
      <trkpt lat="37.90568" lon="34.65413">
        <ele>1244.311908</ele>
        <time>2021-12-31T07:10:38.395Z</time>
      </trkpt>
      <trkpt lat="37.90359" lon="34.65322">
        <ele>1248.580771</ele>
        <time>2021-12-31T07:11:52.413Z</time>
      </trkpt>
      <trkpt lat="37.90132" lon="34.6517">
        <ele>1245.553532</ele>
        <time>2021-12-31T07:12:42.404Z</time>
      </trkpt>
      <trkpt lat="37.89934" lon="34.65063">
        <ele>1248.094919</ele>
        <time>2021-12-31T07:13:49.404Z</time>
      </trkpt>
      <trkpt lat="37.89732" lon="34.64936">
        <ele>1249.052223</ele>
        <time>2021-12-31T07:14:53.415Z</time>
      </trkpt>
      <trkpt lat="37.89532" lon="34.64817">
        <ele>1249.738187</ele>
        <time>2021-12-31T07:15:42.434Z</time>
      </trkpt>
      <trkpt lat="37.89297" lon="34.64661">
        <ele>1253.900635</ele>
        <time>2021-12-31T07:16:42.412Z</time>
      </trkpt>
      <trkpt lat="37.8907" lon="34.64508">
        <ele>1256.660117</ele>
        <time>2021-12-31T07:17:45.396Z</time>
      </trkpt>
      <trkpt lat="37.88834" lon="34.64348">
        <ele>1259.823527</ele>
        <time>2021-12-31T07:18:47.401Z</time>
      </trkpt>
      <trkpt lat="37.88623" lon="34.6419">
        <ele>1258.138142</ele>
        <time>2021-12-31T07:19:45.398Z</time>
      </trkpt>
      <trkpt lat="37.88435" lon="34.64059">
        <ele>1256.401292</ele>
        <time>2021-12-31T07:20:32.419Z</time>
      </trkpt>
      <trkpt lat="37.88259" lon="34.63938">
        <ele>1256.060588</ele>
        <time>2021-12-31T07:21:14.401Z</time>
      </trkpt>
      <trkpt lat="37.88073" lon="34.63809">
        <ele>1255.073631</ele>
        <time>2021-12-31T07:21:58.419Z</time>
      </trkpt>
      <trkpt lat="37.87872" lon="34.6367">
        <ele>1253.314803</ele>
        <time>2021-12-31T07:22:47.421Z</time>
      </trkpt>
      <trkpt lat="37.87682" lon="34.63582">
        <ele>1256.451462</ele>
        <time>2021-12-31T07:23:56.404Z</time>
      </trkpt>
      <trkpt lat="37.87487" lon="34.63464">
        <ele>1255.810875</ele>
        <time>2021-12-31T07:24:56.404Z</time>
      </trkpt>
      <trkpt lat="37.8728" lon="34.63349">
        <ele>1255.604538</ele>
        <time>2021-12-31T07:25:46.419Z</time>
      </trkpt>
      <trkpt lat="37.87029" lon="34.63209">
        <ele>1250.372323</ele>
        <time>2021-12-31T07:26:28.413Z</time>
      </trkpt>
      <trkpt lat="37.86757" lon="34.63048">
        <ele>1245.128733</ele>
        <time>2021-12-31T07:27:10.434Z</time>
      </trkpt>
      <trkpt lat="37.8648" lon="34.62857">
        <ele>1239.799781</ele>
        <time>2021-12-31T07:27:52.398Z</time>
      </trkpt>
      <trkpt lat="37.86261" lon="34.62702">
        <ele>1238.293498</ele>
        <time>2021-12-31T07:28:34.394Z</time>
      </trkpt>
      <trkpt lat="37.86056" lon="34.6256">
        <ele>1237.959314</ele>
        <time>2021-12-31T07:29:16.466Z</time>
      </trkpt>
      <trkpt lat="37.85862" lon="34.62423">
        <ele>1235.493786</ele>
        <time>2021-12-31T07:29:58.433Z</time>
      </trkpt>
      <trkpt lat="37.85664" lon="34.62287">
        <ele>1232.535387</ele>
        <time>2021-12-31T07:30:40.401Z</time>
      </trkpt>
      <trkpt lat="37.85444" lon="34.62131">
        <ele>1227.021249</ele>
        <time>2021-12-31T07:31:22.392Z</time>
      </trkpt>
      <trkpt lat="37.85214" lon="34.61963">
        <ele>1218.514111</ele>
        <time>2021-12-31T07:32:04.449Z</time>
      </trkpt>
      <trkpt lat="37.85027" lon="34.61727">
        <ele>1210.512634</ele>
        <time>2021-12-31T07:32:46.410Z</time>
      </trkpt>
      <trkpt lat="37.84924" lon="34.61351">
        <ele>1197.401534</ele>
        <time>2021-12-31T07:33:28.408Z</time>
      </trkpt>
      <trkpt lat="37.84794" lon="34.61045">
        <ele>1181.298591</ele>
        <time>2021-12-31T07:34:14.423Z</time>
      </trkpt>
      <trkpt lat="37.84633" lon="34.61055">
        <ele>1180.100688</ele>
        <time>2021-12-31T07:38:07.415Z</time>
      </trkpt>
      <trkpt lat="37.84443" lon="34.61171">
        <ele>1178.923432</ele>
        <time>2021-12-31T07:39:14.396Z</time>
      </trkpt>
      <trkpt lat="37.84297" lon="34.6109">
        <ele>1170.701758</ele>
        <time>2021-12-31T07:40:07.415Z</time>
      </trkpt>
      <trkpt lat="37.84197" lon="34.60882">
        <ele>1166.038107</ele>
        <time>2021-12-31T07:40:54.402Z</time>
      </trkpt>
      <trkpt lat="37.83977" lon="34.60839">
        <ele>1167.205932</ele>
        <time>2021-12-31T07:41:47.447Z</time>
      </trkpt>
      <trkpt lat="37.83827" lon="34.60647">
        <ele>1166.986096</ele>
        <time>2021-12-31T07:42:34.413Z</time>
      </trkpt>
      <trkpt lat="37.83695" lon="34.60392">
        <ele>1166.625661</ele>
        <time>2021-12-31T07:43:29.385Z</time>
      </trkpt>
      <trkpt lat="37.83647" lon="34.601">
        <ele>1166.728773</ele>
        <time>2021-12-31T07:44:24.396Z</time>
      </trkpt>
      <trkpt lat="37.83566" lon="34.5984">
        <ele>1168.49636</ele>
        <time>2021-12-31T07:45:15.410Z</time>
      </trkpt>
      <trkpt lat="37.83457" lon="34.59593">
        <ele>1163.681316</ele>
        <time>2021-12-31T07:45:59.407Z</time>
      </trkpt>
      <trkpt lat="37.83337" lon="34.59349">
        <ele>1158.216795</ele>
        <time>2021-12-31T07:46:45.389Z</time>
      </trkpt>
      <trkpt lat="37.8321" lon="34.59127">
        <ele>1158.43133</ele>
        <time>2021-12-31T07:47:29.412Z</time>
      </trkpt>
      <trkpt lat="37.83063" lon="34.58878">
        <ele>1154.450627</ele>
        <time>2021-12-31T07:48:26.404Z</time>
      </trkpt>
      <trkpt lat="37.82928" lon="34.58631">
        <ele>1151.901206</ele>
        <time>2021-12-31T07:49:18.408Z</time>
      </trkpt>
      <trkpt lat="37.82797" lon="34.5838">
        <ele>1150.165793</ele>
        <time>2021-12-31T07:50:13.395Z</time>
      </trkpt>
      <trkpt lat="37.82677" lon="34.58132">
        <ele>1148.192663</ele>
        <time>2021-12-31T07:51:12.392Z</time>
      </trkpt>
      <trkpt lat="37.82628" lon="34.57868">
        <ele>1143.970048</ele>
        <time>2021-12-31T07:52:03.405Z</time>
      </trkpt>
      <trkpt lat="37.82596" lon="34.57586">
        <ele>1137.41182</ele>
        <time>2021-12-31T07:52:59.407Z</time>
      </trkpt>
      <trkpt lat="37.82487" lon="34.57496">
        <ele>1137.793689</ele>
        <time>2021-12-31T07:54:09.403Z</time>
      </trkpt>
      <trkpt lat="37.82341" lon="34.57358">
        <ele>1143.19766</ele>
        <time>2021-12-31T08:01:05.428Z</time>
      </trkpt>
      <trkpt lat="37.82257" lon="34.57161">
        <ele>1143.300004</ele>
        <time>2021-12-31T08:03:36.411Z</time>
      </trkpt>
      <trkpt lat="37.82255" lon="34.56878">
        <ele>1136.762949</ele>
        <time>2021-12-31T08:04:40.409Z</time>
      </trkpt>
      <trkpt lat="37.82239" lon="34.56568">
        <ele>1128.574894</ele>
        <time>2021-12-31T08:05:28.427Z</time>
      </trkpt>
      <trkpt lat="37.82139" lon="34.5632">
        <ele>1120.622185</ele>
        <time>2021-12-31T08:06:17.419Z</time>
      </trkpt>
      <trkpt lat="37.82116" lon="34.56054">
        <ele>1117.698837</ele>
        <time>2021-12-31T08:07:01.398Z</time>
      </trkpt>
      <trkpt lat="37.82098" lon="34.55793">
        <ele>1116.620175</ele>
        <time>2021-12-31T08:07:44.421Z</time>
      </trkpt>
      <trkpt lat="37.82044" lon="34.55551">
        <ele>1116.92368</ele>
        <time>2021-12-31T08:08:26.417Z</time>
      </trkpt>
      <trkpt lat="37.8196" lon="34.55314">
        <ele>1116.591879</ele>
        <time>2021-12-31T08:09:11.421Z</time>
      </trkpt>
      <trkpt lat="37.81905" lon="34.5504">
        <ele>1115.415602</ele>
        <time>2021-12-31T08:10:00.425Z</time>
      </trkpt>
      <trkpt lat="37.8185" lon="34.5476">
        <ele>1116.282013</ele>
        <time>2021-12-31T08:11:02.424Z</time>
      </trkpt>
      <trkpt lat="37.81803" lon="34.54481">
        <ele>1109.723102</ele>
        <time>2021-12-31T08:11:52.421Z</time>
      </trkpt>
      <trkpt lat="37.8175" lon="34.54227">
        <ele>1110.422914</ele>
        <time>2021-12-31T08:12:37.433Z</time>
      </trkpt>
      <trkpt lat="37.81667" lon="34.54008">
        <ele>1109.332784</ele>
        <time>2021-12-31T08:13:18.424Z</time>
      </trkpt>
      <trkpt lat="37.81581" lon="34.53769">
        <ele>1108.559532</ele>
        <time>2021-12-31T08:14:00.421Z</time>
      </trkpt>
      <trkpt lat="37.81496" lon="34.53532">
        <ele>1107.095522</ele>
        <time>2021-12-31T08:14:42.418Z</time>
      </trkpt>
      <trkpt lat="37.81406" lon="34.53296">
        <ele>1104.75225</ele>
        <time>2021-12-31T08:15:24.440Z</time>
      </trkpt>
      <trkpt lat="37.81303" lon="34.53074">
        <ele>1103.439456</ele>
        <time>2021-12-31T08:16:06.424Z</time>
      </trkpt>
      <trkpt lat="37.81202" lon="34.52859">
        <ele>1101.997755</ele>
        <time>2021-12-31T08:16:48.419Z</time>
      </trkpt>
      <trkpt lat="37.81096" lon="34.52636">
        <ele>1101.262857</ele>
        <time>2021-12-31T08:17:30.423Z</time>
      </trkpt>
      <trkpt lat="37.80991" lon="34.5241">
        <ele>1101.922336</ele>
        <time>2021-12-31T08:18:12.417Z</time>
      </trkpt>
      <trkpt lat="37.80885" lon="34.52189">
        <ele>1101.229404</ele>
        <time>2021-12-31T08:18:54.415Z</time>
      </trkpt>
      <trkpt lat="37.80783" lon="34.51972">
        <ele>1100.021981</ele>
        <time>2021-12-31T08:19:36.417Z</time>
      </trkpt>
      <trkpt lat="37.80674" lon="34.51758">
        <ele>1098.751806</ele>
        <time>2021-12-31T08:20:19.411Z</time>
      </trkpt>
      <trkpt lat="37.80541" lon="34.5154">
        <ele>1096.519445</ele>
        <time>2021-12-31T08:21:08.422Z</time>
      </trkpt>
      <trkpt lat="37.80351" lon="34.51303">
        <ele>1095.296408</ele>
        <time>2021-12-31T08:22:09.432Z</time>
      </trkpt>
      <trkpt lat="37.80199" lon="34.51143">
        <ele>1091.723239</ele>
        <time>2021-12-31T08:22:51.421Z</time>
      </trkpt>
      <trkpt lat="37.80044" lon="34.50974">
        <ele>1089.312215</ele>
        <time>2021-12-31T08:23:33.477Z</time>
      </trkpt>
      <trkpt lat="37.79888" lon="34.50813">
        <ele>1088.535036</ele>
        <time>2021-12-31T08:24:15.429Z</time>
      </trkpt>
      <trkpt lat="37.79743" lon="34.50653">
        <ele>1088.242083</ele>
        <time>2021-12-31T08:24:55.440Z</time>
      </trkpt>
      <trkpt lat="37.796" lon="34.50469">
        <ele>1088.151427</ele>
        <time>2021-12-31T08:25:39.416Z</time>
      </trkpt>
      <trkpt lat="37.79464" lon="34.50293">
        <ele>1088.176584</ele>
        <time>2021-12-31T08:26:21.433Z</time>
      </trkpt>
      <trkpt lat="37.79318" lon="34.50109">
        <ele>1087.027283</ele>
        <time>2021-12-31T08:27:06.422Z</time>
      </trkpt>
      <trkpt lat="37.79183" lon="34.49923">
        <ele>1087.443394</ele>
        <time>2021-12-31T08:27:49.437Z</time>
      </trkpt>
      <trkpt lat="37.7906" lon="34.49723">
        <ele>1086.879549</ele>
        <time>2021-12-31T08:28:32.419Z</time>
      </trkpt>
      <trkpt lat="37.78932" lon="34.49505">
        <ele>1085.994585</ele>
        <time>2021-12-31T08:29:19.433Z</time>
      </trkpt>
      <trkpt lat="37.78826" lon="34.49288">
        <ele>1087.070732</ele>
        <time>2021-12-31T08:30:01.429Z</time>
      </trkpt>
      <trkpt lat="37.78733" lon="34.49064">
        <ele>1087.129419</ele>
        <time>2021-12-31T08:30:43.442Z</time>
      </trkpt>
      <trkpt lat="37.78613" lon="34.48864">
        <ele>1085.064204</ele>
        <time>2021-12-31T08:31:25.425Z</time>
      </trkpt>
      <trkpt lat="37.78484" lon="34.48668">
        <ele>1084.040111</ele>
        <time>2021-12-31T08:32:07.439Z</time>
      </trkpt>
      <trkpt lat="37.78383" lon="34.48446">
        <ele>1084.47439</ele>
        <time>2021-12-31T08:32:49.415Z</time>
      </trkpt>
      <trkpt lat="37.78215" lon="34.48326">
        <ele>1086.675165</ele>
        <time>2021-12-31T08:33:36.431Z</time>
      </trkpt>
      <trkpt lat="37.78003" lon="34.48396">
        <ele>1086.940929</ele>
        <time>2021-12-31T08:34:31.433Z</time>
      </trkpt>
      <trkpt lat="37.77924" lon="34.48124">
        <ele>1085.018531</ele>
        <time>2021-12-31T08:35:22.419Z</time>
      </trkpt>
      <trkpt lat="37.77829" lon="34.47866">
        <ele>1083.552245</ele>
        <time>2021-12-31T08:36:13.430Z</time>
      </trkpt>
      <trkpt lat="37.77685" lon="34.47676">
        <ele>1082.343303</ele>
        <time>2021-12-31T08:36:58.424Z</time>
      </trkpt>
      <trkpt lat="37.77545" lon="34.47492">
        <ele>1082.885797</ele>
        <time>2021-12-31T08:37:40.432Z</time>
      </trkpt>
      <trkpt lat="37.77388" lon="34.47285">
        <ele>1081.182449</ele>
        <time>2021-12-31T08:38:30.431Z</time>
      </trkpt>
      <trkpt lat="37.77209" lon="34.47049">
        <ele>1079.154003</ele>
        <time>2021-12-31T08:39:30.420Z</time>
      </trkpt>
      <trkpt lat="37.77024" lon="34.46805">
        <ele>1078.796941</ele>
        <time>2021-12-31T08:40:33.435Z</time>
      </trkpt>
      <trkpt lat="37.76843" lon="34.46565">
        <ele>1079.792358</ele>
        <time>2021-12-31T08:41:36.420Z</time>
      </trkpt>
      <trkpt lat="37.76666" lon="34.4633">
        <ele>1079.169836</ele>
        <time>2021-12-31T08:42:39.460Z</time>
      </trkpt>
      <trkpt lat="37.76479" lon="34.46083">
        <ele>1080.215742</ele>
        <time>2021-12-31T08:43:42.442Z</time>
      </trkpt>
      <trkpt lat="37.76295" lon="34.45841">
        <ele>1080.953684</ele>
        <time>2021-12-31T08:44:44.429Z</time>
      </trkpt>
      <trkpt lat="37.7611" lon="34.45597">
        <ele>1080.202795</ele>
        <time>2021-12-31T08:45:47.436Z</time>
      </trkpt>
      <trkpt lat="37.75926" lon="34.45356">
        <ele>1080.517783</ele>
        <time>2021-12-31T08:46:50.433Z</time>
      </trkpt>
      <trkpt lat="37.75759" lon="34.45134">
        <ele>1080.548706</ele>
        <time>2021-12-31T08:47:46.456Z</time>
      </trkpt>
      <trkpt lat="37.75573" lon="34.44888">
        <ele>1080.103083</ele>
        <time>2021-12-31T08:48:49.438Z</time>
      </trkpt>
      <trkpt lat="37.75395" lon="34.44656">
        <ele>1079.315629</ele>
        <time>2021-12-31T08:49:49.427Z</time>
      </trkpt>
      <trkpt lat="37.75211" lon="34.44413">
        <ele>1079.719137</ele>
        <time>2021-12-31T08:50:51.433Z</time>
      </trkpt>
      <trkpt lat="37.75046" lon="34.44195">
        <ele>1079.94543</ele>
        <time>2021-12-31T08:51:46.440Z</time>
      </trkpt>
      <trkpt lat="37.74861" lon="34.43955">
        <ele>1079.052557</ele>
        <time>2021-12-31T08:52:49.441Z</time>
      </trkpt>
      <trkpt lat="37.74676" lon="34.43712">
        <ele>1080.057427</ele>
        <time>2021-12-31T08:53:52.414Z</time>
      </trkpt>
      <trkpt lat="37.74493" lon="34.43466">
        <ele>1085.235241</ele>
        <time>2021-12-31T08:54:55.441Z</time>
      </trkpt>
      <trkpt lat="37.74309" lon="34.43224">
        <ele>1085.130476</ele>
        <time>2021-12-31T08:55:56.436Z</time>
      </trkpt>
      <trkpt lat="37.74127" lon="34.42985">
        <ele>1085.343287</ele>
        <time>2021-12-31T08:56:57.440Z</time>
      </trkpt>
      <trkpt lat="37.73862" lon="34.43022">
        <ele>1082.860503</ele>
        <time>2021-12-31T09:22:44.822Z</time>
      </trkpt>
      <trkpt lat="37.73658" lon="34.43098">
        <ele>1084.083877</ele>
        <time>2021-12-31T09:23:49.824Z</time>
      </trkpt>
      <trkpt lat="37.73453" lon="34.43166">
        <ele>1084.826048</ele>
        <time>2021-12-31T09:24:52.847Z</time>
      </trkpt>
      <trkpt lat="37.73228" lon="34.43211">
        <ele>1086.158289</ele>
        <time>2021-12-31T09:25:55.840Z</time>
      </trkpt>
      <trkpt lat="37.73003" lon="34.43268">
        <ele>1087.628667</ele>
        <time>2021-12-31T09:26:58.840Z</time>
      </trkpt>
      <trkpt lat="37.72786" lon="34.43355">
        <ele>1088.859902</ele>
        <time>2021-12-31T09:28:01.835Z</time>
      </trkpt>
      <trkpt lat="37.72615" lon="34.43497">
        <ele>1090.159804</ele>
        <time>2021-12-31T09:29:04.840Z</time>
      </trkpt>
      <trkpt lat="37.72415" lon="34.4357">
        <ele>1091.943055</ele>
        <time>2021-12-31T09:30:11.846Z</time>
      </trkpt>
      <trkpt lat="37.72226" lon="34.4371">
        <ele>1096.530884</ele>
        <time>2021-12-31T09:31:30.835Z</time>
      </trkpt>
      <trkpt lat="37.72087" lon="34.43902">
        <ele>1099.459604</ele>
        <time>2021-12-31T09:32:50.837Z</time>
      </trkpt>
      <trkpt lat="37.71899" lon="34.44039">
        <ele>1104.149449</ele>
        <time>2021-12-31T09:34:14.824Z</time>
      </trkpt>
      <trkpt lat="37.71684" lon="34.44024">
        <ele>1108.503472</ele>
        <time>2021-12-31T09:35:40.840Z</time>
      </trkpt>
      <trkpt lat="37.71457" lon="34.44042">
        <ele>1113.038852</ele>
        <time>2021-12-31T09:37:04.867Z</time>
      </trkpt>
      <trkpt lat="37.71244" lon="34.44107">
        <ele>1116.773284</ele>
        <time>2021-12-31T09:38:28.851Z</time>
      </trkpt>
      <trkpt lat="37.71032" lon="34.44168">
        <ele>1120.822328</ele>
        <time>2021-12-31T09:39:51.847Z</time>
      </trkpt>
      <trkpt lat="37.70811" lon="34.44204">
        <ele>1125.491276</ele>
        <time>2021-12-31T09:41:15.880Z</time>
      </trkpt>
      <trkpt lat="37.70588" lon="34.44217">
        <ele>1130.033698</ele>
        <time>2021-12-31T09:42:36.842Z</time>
      </trkpt>
      <trkpt lat="37.70366" lon="34.44237">
        <ele>1132.9117</ele>
        <time>2021-12-31T09:43:49.889Z</time>
      </trkpt>
      <trkpt lat="37.70157" lon="34.44284">
        <ele>1137.311723</ele>
        <time>2021-12-31T09:44:58.851Z</time>
      </trkpt>
      <trkpt lat="37.69942" lon="34.44383">
        <ele>1142.769288</ele>
        <time>2021-12-31T09:46:18.848Z</time>
      </trkpt>
      <trkpt lat="37.6974" lon="34.44462">
        <ele>1148.128564</ele>
        <time>2021-12-31T09:47:41.844Z</time>
      </trkpt>
      <trkpt lat="37.69537" lon="34.44556">
        <ele>1151.407519</ele>
        <time>2021-12-31T09:48:59.848Z</time>
      </trkpt>
      <trkpt lat="37.69346" lon="34.44653">
        <ele>1157.369997</ele>
        <time>2021-12-31T09:50:31.886Z</time>
      </trkpt>
      <trkpt lat="37.69154" lon="34.44751">
        <ele>1166.760589</ele>
        <time>2021-12-31T09:52:16.840Z</time>
      </trkpt>
      <trkpt lat="37.68963" lon="34.44845">
        <ele>1176.625251</ele>
        <time>2021-12-31T09:54:11.843Z</time>
      </trkpt>
      <trkpt lat="37.6877" lon="34.44912">
        <ele>1183.385421</ele>
        <time>2021-12-31T09:56:09.835Z</time>
      </trkpt>
      <trkpt lat="37.68553" lon="34.4492">
        <ele>1185.252892</ele>
        <time>2021-12-31T09:57:32.845Z</time>
      </trkpt>
      <trkpt lat="37.68337" lon="34.44925">
        <ele>1189.855904</ele>
        <time>2021-12-31T09:58:48.856Z</time>
      </trkpt>
      <trkpt lat="37.68136" lon="34.44992">
        <ele>1196.093665</ele>
        <time>2021-12-31T10:00:16.888Z</time>
      </trkpt>
      <trkpt lat="37.67967" lon="34.45155">
        <ele>1201.461365</ele>
        <time>2021-12-31T10:01:49.850Z</time>
      </trkpt>
      <trkpt lat="37.67778" lon="34.45279">
        <ele>1209.517838</ele>
        <time>2021-12-31T10:03:47.857Z</time>
      </trkpt>
      <trkpt lat="37.67583" lon="34.45385">
        <ele>1218.199608</ele>
        <time>2021-12-31T10:05:38.864Z</time>
      </trkpt>
      <trkpt lat="37.67389" lon="34.45483">
        <ele>1226.757888</ele>
        <time>2021-12-31T10:07:26.891Z</time>
      </trkpt>
      <trkpt lat="37.67194" lon="34.45587">
        <ele>1227.69474</ele>
        <time>2021-12-31T10:08:41.890Z</time>
      </trkpt>
      <trkpt lat="37.66994" lon="34.45695">
        <ele>1228.063437</ele>
        <time>2021-12-31T10:09:44.849Z</time>
      </trkpt>
      <trkpt lat="37.66789" lon="34.45772">
        <ele>1232.930956</ele>
        <time>2021-12-31T10:10:55.845Z</time>
      </trkpt>
      <trkpt lat="37.66578" lon="34.45816">
        <ele>1238.893285</ele>
        <time>2021-12-31T10:12:20.891Z</time>
      </trkpt>
      <trkpt lat="37.66364" lon="34.45836">
        <ele>1245.979302</ele>
        <time>2021-12-31T10:13:57.850Z</time>
      </trkpt>
      <trkpt lat="37.66151" lon="34.45826">
        <ele>1242.257083</ele>
        <time>2021-12-31T10:15:12.875Z</time>
      </trkpt>
      <trkpt lat="37.65918" lon="34.45816">
        <ele>1239.13111</ele>
        <time>2021-12-31T10:16:15.843Z</time>
      </trkpt>
      <trkpt lat="37.65756" lon="34.45734">
        <ele>1238.256403</ele>
        <time>2021-12-31T10:17:24.850Z</time>
      </trkpt>
      <trkpt lat="37.65696" lon="34.45416">
        <ele>1232.349747</ele>
        <time>2021-12-31T10:18:06.883Z</time>
      </trkpt>
      <trkpt lat="37.65564" lon="34.45147">
        <ele>1224.030226</ele>
        <time>2021-12-31T10:18:48.846Z</time>
      </trkpt>
      <trkpt lat="37.65344" lon="34.45065">
        <ele>1223.827609</ele>
        <time>2021-12-31T10:19:49.855Z</time>
      </trkpt>
      <trkpt lat="37.65133" lon="34.45123">
        <ele>1225.513808</ele>
        <time>2021-12-31T10:20:52.842Z</time>
      </trkpt>
      <trkpt lat="37.6492" lon="34.45212">
        <ele>1230.201151</ele>
        <time>2021-12-31T10:22:02.857Z</time>
      </trkpt>
      <trkpt lat="37.64734" lon="34.45334">
        <ele>1233.320912</ele>
        <time>2021-12-31T10:23:11.852Z</time>
      </trkpt>
      <trkpt lat="37.64538" lon="34.45422">
        <ele>1235.365877</ele>
        <time>2021-12-31T10:24:19.851Z</time>
      </trkpt>
      <trkpt lat="37.64345" lon="34.45542">
        <ele>1237.396822</ele>
        <time>2021-12-31T10:25:23.892Z</time>
      </trkpt>
      <trkpt lat="37.64169" lon="34.45673">
        <ele>1239.807131</ele>
        <time>2021-12-31T10:26:31.886Z</time>
      </trkpt>
      <trkpt lat="37.63987" lon="34.4581">
        <ele>1247.946276</ele>
        <time>2021-12-31T10:27:45.844Z</time>
      </trkpt>
      <trkpt lat="37.63799" lon="34.45932">
        <ele>1249.155423</ele>
        <time>2021-12-31T10:29:06.841Z</time>
      </trkpt>
      <trkpt lat="37.63621" lon="34.4606">
        <ele>1252.913229</ele>
        <time>2021-12-31T10:30:29.880Z</time>
      </trkpt>
      <trkpt lat="37.63438" lon="34.45938">
        <ele>1264.366671</ele>
        <time>2021-12-31T10:32:22.859Z</time>
      </trkpt>
      <trkpt lat="37.63249" lon="34.46042">
        <ele>1275.118107</ele>
        <time>2021-12-31T10:34:37.873Z</time>
      </trkpt>
      <trkpt lat="37.63042" lon="34.4609">
        <ele>1286.501055</ele>
        <time>2021-12-31T10:36:19.855Z</time>
      </trkpt>
      <trkpt lat="37.62836" lon="34.46076">
        <ele>1289.475547</ele>
        <time>2021-12-31T10:37:46.862Z</time>
      </trkpt>
      <trkpt lat="37.62631" lon="34.46051">
        <ele>1301.023206</ele>
        <time>2021-12-31T10:39:52.857Z</time>
      </trkpt>
      <trkpt lat="37.62431" lon="34.46008">
        <ele>1309.959559</ele>
        <time>2021-12-31T10:41:59.921Z</time>
      </trkpt>
      <trkpt lat="37.62263" lon="34.45859">
        <ele>1315.587015</ele>
        <time>2021-12-31T10:43:57.850Z</time>
      </trkpt>
      <trkpt lat="37.62029" lon="34.45765">
        <ele>1315.671268</ele>
        <time>2021-12-31T10:52:51.871Z</time>
      </trkpt>
      <trkpt lat="37.61834" lon="34.45705">
        <ele>1333.168016</ele>
        <time>2021-12-31T10:55:16.871Z</time>
      </trkpt>
      <trkpt lat="37.61638" lon="34.45658">
        <ele>1352.732017</ele>
        <time>2021-12-31T10:57:52.869Z</time>
      </trkpt>
      <trkpt lat="37.61436" lon="34.45644">
        <ele>1372.136594</ele>
        <time>2021-12-31T11:00:35.875Z</time>
      </trkpt>
      <trkpt lat="37.61239" lon="34.45584">
        <ele>1385.989889</ele>
        <time>2021-12-31T11:03:10.856Z</time>
      </trkpt>
      <trkpt lat="37.61044" lon="34.45639">
        <ele>1399.775057</ele>
        <time>2021-12-31T11:05:40.861Z</time>
      </trkpt>
      <trkpt lat="37.60867" lon="34.45516">
        <ele>1408.278926</ele>
        <time>2021-12-31T11:07:55.886Z</time>
      </trkpt>
      <trkpt lat="37.60691" lon="34.45394">
        <ele>1414.797144</ele>
        <time>2021-12-31T11:09:28.877Z</time>
      </trkpt>
      <trkpt lat="37.60494" lon="34.45358">
        <ele>1434.432598</ele>
        <time>2021-12-31T11:12:04.873Z</time>
      </trkpt>
      <trkpt lat="37.6031" lon="34.45449">
        <ele>1452.194783</ele>
        <time>2021-12-31T11:14:59.884Z</time>
      </trkpt>
      <trkpt lat="37.60183" lon="34.45639">
        <ele>1470.503781</ele>
        <time>2021-12-31T11:17:56.871Z</time>
      </trkpt>
      <trkpt lat="37.60087" lon="34.45844">
        <ele>1484.718915</ele>
        <time>2021-12-31T11:20:46.875Z</time>
      </trkpt>
      <trkpt lat="37.60007" lon="34.46085">
        <ele>1500.100723</ele>
        <time>2021-12-31T11:28:03.869Z</time>
      </trkpt>
      <trkpt lat="37.59914" lon="34.46313">
        <ele>1517.088827</ele>
        <time>2021-12-31T11:30:51.897Z</time>
      </trkpt>
      <trkpt lat="37.59794" lon="34.46503">
        <ele>1536.252765</ele>
        <time>2021-12-31T11:34:06.882Z</time>
      </trkpt>
      <trkpt lat="37.597" lon="34.46702">
        <ele>1555.690292</ele>
        <time>2021-12-31T11:36:44.872Z</time>
      </trkpt>
      <trkpt lat="37.59674" lon="34.46949">
        <ele>1573.217758</ele>
        <time>2021-12-31T11:39:38.861Z</time>
      </trkpt>
      <trkpt lat="37.59632" lon="34.47191">
        <ele>1590.822523</ele>
        <time>2021-12-31T11:42:43.924Z</time>
      </trkpt>
      <trkpt lat="37.59501" lon="34.4738">
        <ele>1597.880402</ele>
        <time>2021-12-31T11:45:14.863Z</time>
      </trkpt>
      <trkpt lat="37.5925" lon="34.4752">
        <ele>1592.865379</ele>
        <time>2021-12-31T11:46:03.871Z</time>
      </trkpt>
      <trkpt lat="37.59041" lon="34.47522">
        <ele>1600.20809</ele>
        <time>2021-12-31T11:47:44.867Z</time>
      </trkpt>
      <trkpt lat="37.58839" lon="34.47494">
        <ele>1611.06832</ele>
        <time>2021-12-31T11:49:29.882Z</time>
      </trkpt>
      <trkpt lat="37.58623" lon="34.47382">
        <ele>1606.267103</ele>
        <time>2021-12-31T11:50:29.924Z</time>
      </trkpt>
      <trkpt lat="37.58306" lon="34.47334">
        <ele>1581.995616</ele>
        <time>2021-12-31T11:51:10.876Z</time>
      </trkpt>
      <trkpt lat="37.58092" lon="34.47176">
        <ele>1569.025147</ele>
        <time>2021-12-31T11:53:29.866Z</time>
      </trkpt>
      <trkpt lat="37.5782" lon="34.47043">
        <ele>1547.486461</ele>
        <time>2021-12-31T11:54:11.879Z</time>
      </trkpt>
      <trkpt lat="37.57566" lon="34.46992">
        <ele>1534.177716</ele>
        <time>2021-12-31T11:54:53.891Z</time>
      </trkpt>
      <trkpt lat="37.57364" lon="34.47077">
        <ele>1529.797851</ele>
        <time>2021-12-31T11:55:33.880Z</time>
      </trkpt>
      <trkpt lat="37.5713" lon="34.47127">
        <ele>1524.269786</ele>
        <time>2021-12-31T11:56:17.902Z</time>
      </trkpt>
      <trkpt lat="37.56889" lon="34.47173">
        <ele>1524.01105</ele>
        <time>2021-12-31T11:57:14.874Z</time>
      </trkpt>
      <trkpt lat="37.56679" lon="34.4727">
        <ele>1525.171715</ele>
        <time>2021-12-31T11:58:53.882Z</time>
      </trkpt>
      <trkpt lat="37.56487" lon="34.47434">
        <ele>1525.570334</ele>
        <time>2021-12-31T12:00:02.882Z</time>
      </trkpt>
      <trkpt lat="37.56326" lon="34.47649">
        <ele>1532.639477</ele>
        <time>2021-12-31T12:01:11.882Z</time>
      </trkpt>
      <trkpt lat="37.56217" lon="34.47864">
        <ele>1539.516517</ele>
        <time>2021-12-31T12:03:53.913Z</time>
      </trkpt>
      <trkpt lat="37.56096" lon="34.48101">
        <ele>1532.484266</ele>
        <time>2021-12-31T12:04:42.893Z</time>
      </trkpt>
      <trkpt lat="37.55802" lon="34.48176">
        <ele>1507.044857</ele>
        <time>2021-12-31T12:05:24.869Z</time>
      </trkpt>
      <trkpt lat="37.55547" lon="34.48233">
        <ele>1494.235696</ele>
        <time>2021-12-31T12:06:06.942Z</time>
      </trkpt>
      <trkpt lat="37.55333" lon="34.48327">
        <ele>1486.882315</ele>
        <time>2021-12-31T12:06:51.890Z</time>
      </trkpt>
      <trkpt lat="37.55127" lon="34.48426">
        <ele>1479.825948</ele>
        <time>2021-12-31T12:07:44.878Z</time>
      </trkpt>
      <trkpt lat="37.54912" lon="34.48416">
        <ele>1479.398482</ele>
        <time>2021-12-31T12:08:45.889Z</time>
      </trkpt>
      <trkpt lat="37.54774" lon="34.48356">
        <ele>1475.254314</ele>
        <time>2021-12-31T12:09:45.911Z</time>
      </trkpt>
      <trkpt lat="37.54736" lon="34.48119">
        <ele>1475.674701</ele>
        <time>2021-12-31T12:11:08.889Z</time>
      </trkpt>
      <trkpt lat="37.54637" lon="34.48079">
        <ele>1475.674701</ele>
        <time>2021-12-31T12:13:41.703Z</time>
      </trkpt>
    </trkseg>
  </trk>
</gpx>